createdAt,value
2019-05-02T00:01:20.295Z,2.55
2019-05-02T00:03:46.957Z,3.25
2019-05-02T00:06:13.576Z,3.40
2019-05-02T00:08:40.945Z,3.25
2019-05-02T00:11:09.503Z,2.83
2019-05-02T00:13:36.102Z,3.35
2019-05-02T00:16:02.973Z,3.45
2019-05-02T00:18:32.072Z,3.30
2019-05-02T00:21:01.460Z,3.77
2019-05-02T00:23:28.033Z,2.83
2019-05-02T00:25:55.419Z,3.83
2019-05-02T00:28:21.950Z,3.92
2019-05-02T00:30:49.605Z,3.10
2019-05-02T00:33:16.543Z,3.17
2019-05-02T00:35:46.245Z,3.02
2019-05-02T00:38:12.154Z,2.90
2019-05-02T00:40:38.725Z,2.62
2019-05-02T00:43:05.242Z,2.83
2019-05-02T00:45:31.924Z,2.90
2019-05-02T00:48:03.402Z,3.20
2019-05-02T00:50:31.776Z,3.33
2019-05-02T00:52:58.232Z,2.67
2019-05-02T00:55:28.777Z,2.98
2019-05-02T00:57:55.756Z,3.15
2019-05-02T01:00:21.824Z,3.37
2019-05-02T01:02:56.286Z,3.33
2019-05-02T01:05:27.465Z,3.25
2019-05-02T01:07:55.884Z,3.20
2019-05-02T01:10:22.549Z,3.67
2019-05-02T01:12:49.060Z,3.72
2019-05-02T01:15:15.709Z,3.95
2019-05-02T01:17:42.188Z,3.47
2019-05-02T01:20:09.124Z,3.15
2019-05-02T01:22:35.588Z,3.37
2019-05-02T01:25:06.052Z,3.35
2019-05-02T01:27:41.149Z,4.33
2019-05-02T01:30:20.282Z,3.87
2019-05-02T01:33:01.466Z,3.72
2019-05-02T01:35:35.292Z,4.00
2019-05-02T01:38:20.400Z,4.00
2019-05-02T01:40:53.212Z,4.08
2019-05-02T01:43:20.128Z,4.78
2019-05-02T01:45:48.316Z,3.80
2019-05-02T01:48:16.733Z,3.42
2019-05-02T01:50:43.456Z,3.30
2019-05-02T01:53:09.918Z,3.50
2019-05-02T01:55:36.398Z,4.03
2019-05-02T01:58:03.067Z,3.90
2019-05-02T02:00:30.520Z,3.30
2019-05-02T02:02:57.225Z,3.45
2019-05-02T02:05:27.622Z,3.80
2019-05-02T02:07:55.457Z,3.45
2019-05-02T02:10:21.086Z,3.37
2019-05-02T02:13:02.909Z,3.37
2019-05-02T02:15:17.537Z,4.10
2019-05-02T02:17:46.866Z,3.83
2019-05-02T02:20:15.647Z,3.33
2019-05-02T02:22:44.152Z,3.58
2019-05-02T02:25:32.253Z,3.60
2019-05-02T02:28:01.772Z,3.72
2019-05-02T02:30:29.357Z,3.85
2019-05-02T02:33:00.497Z,4.22
2019-05-02T02:35:24.047Z,4.00
2019-05-02T02:37:52.948Z,3.12
2019-05-02T02:40:18.762Z,3.50
2019-05-02T02:42:45.226Z,4.00
2019-05-02T02:45:26.221Z,4.60
2019-05-02T02:47:59.210Z,4.05
2019-05-02T02:50:21.075Z,3.90
2019-05-02T02:52:47.539Z,3.72
2019-05-02T02:55:16.139Z,4.47
2019-05-02T02:57:42.508Z,3.42
2019-05-02T03:00:11.148Z,4.50
2019-05-02T03:02:47.692Z,4.30
2019-05-02T03:05:05.892Z,4.40
2019-05-02T03:07:32.329Z,3.70
2019-05-02T03:09:59.715Z,3.62
2019-05-02T03:12:29.376Z,3.33
2019-05-02T03:15:00.463Z,3.45
2019-05-02T03:17:28.741Z,3.80
2019-05-02T03:20:01.095Z,4.00
2019-05-02T03:22:23.663Z,3.62
2019-05-02T03:24:50.100Z,4.20
2019-05-02T03:27:16.538Z,4.03
2019-05-02T03:29:44.493Z,3.95
2019-05-02T03:32:16.744Z,3.90
2019-05-02T03:34:52.874Z,3.70
2019-05-02T03:37:13.453Z,3.90
2019-05-02T03:39:37.204Z,3.70
2019-05-02T03:42:05.089Z,3.92
2019-05-02T03:44:32.295Z,4.60
2019-05-02T03:47:02.076Z,4.58
2019-05-02T03:49:27.402Z,4.03
2019-05-02T03:51:56.012Z,4.58
2019-05-02T03:54:22.244Z,4.80
2019-05-02T03:56:51.386Z,4.83
2019-05-02T03:59:17.055Z,4.33
2019-05-02T04:01:43.976Z,4.10
2019-05-02T04:04:14.115Z,4.22
2019-05-02T04:06:39.386Z,12.07
2019-05-02T04:09:06.551Z,12.15
2019-05-02T04:11:38.942Z,7.10
2019-05-02T04:14:01.649Z,5.92
2019-05-02T04:16:28.506Z,5.40
2019-05-02T04:18:58.266Z,6.85
2019-05-02T04:21:26.274Z,5.47
2019-05-02T04:23:52.863Z,5.70
2019-05-02T04:26:19.550Z,6.35
2019-05-02T04:28:51.870Z,4.87
2019-05-02T04:31:14.456Z,4.75
2019-05-02T04:33:41.119Z,5.08
2019-05-02T04:36:14.757Z,4.33
2019-05-02T04:38:44.364Z,3.75
2019-05-02T04:41:04.373Z,4.22
2019-05-02T04:43:30.855Z,3.92
2019-05-02T04:46:00.008Z,3.67
2019-05-02T04:48:28.368Z,4.45
2019-05-02T04:50:59.417Z,4.53
2019-05-02T04:53:25.851Z,4.30
2019-05-02T04:56:01.523Z,4.35
2019-05-02T04:58:27.667Z,4.60
2019-05-02T05:00:53.476Z,4.17
2019-05-02T05:03:18.129Z,4.12
2019-05-02T05:05:43.683Z,4.58
2019-05-02T05:08:10.154Z,5.10
2019-05-02T05:10:41.397Z,5.30
2019-05-02T05:13:04.897Z,4.72
2019-05-02T05:15:40.170Z,4.35
2019-05-02T05:18:04.306Z,5.10
2019-05-02T05:20:28.033Z,4.97
2019-05-02T05:22:54.602Z,5.45
2019-05-02T05:25:27.682Z,5.50
2019-05-02T05:27:58.687Z,6.45
2019-05-02T05:30:23.572Z,6.40
2019-05-02T05:32:50.021Z,6.83
2019-05-02T05:35:17.749Z,6.50
2019-05-02T05:37:51.457Z,7.00
2019-05-02T05:40:13.643Z,7.62
2019-05-02T05:42:40.089Z,8.30
2019-05-02T05:45:09.666Z,9.30
2019-05-02T05:47:35.400Z,8.53
2019-05-02T05:50:02.311Z,7.60
2019-05-02T05:52:33.231Z,7.87
2019-05-02T05:54:57.941Z,7.55
2019-05-02T05:57:24.493Z,7.55
2019-05-02T05:59:50.929Z,6.90
2019-05-02T06:02:18.379Z,7.40
2019-05-02T06:04:44.995Z,7.25
2019-05-02T06:07:11.441Z,7.78
2019-05-02T06:09:37.923Z,7.62
2019-05-02T06:12:04.396Z,7.60
2019-05-02T06:14:30.827Z,6.55
2019-05-02T06:16:57.289Z,5.97
2019-05-02T06:19:23.736Z,6.97
2019-05-02T06:21:50.198Z,7.03
2019-05-02T06:24:17.127Z,6.50
2019-05-02T06:26:44.687Z,7.85
2019-05-02T06:29:13.065Z,7.12
2019-05-02T06:31:42.983Z,6.20
2019-05-02T06:34:08.426Z,6.30
2019-05-02T06:36:36.844Z,6.90
2019-05-02T06:39:04.989Z,6.37
2019-05-02T06:41:31.638Z,6.58
2019-05-02T06:43:58.106Z,6.28
2019-05-02T06:46:27.828Z,5.90
2019-05-02T06:48:53.680Z,6.20
2019-05-02T06:51:21.142Z,6.28
2019-05-02T06:53:48.980Z,6.30
2019-05-02T06:56:15.602Z,6.22
2019-05-02T06:58:43.340Z,6.40
2019-05-02T07:01:10.099Z,6.22
2019-05-02T07:03:41.172Z,6.75
2019-05-02T07:06:07.546Z,7.53
2019-05-02T07:08:33.376Z,7.10
2019-05-02T07:11:19.934Z,7.65
2019-05-02T07:14:12.945Z,7.90
2019-05-02T07:19:27.258Z,6.25
2019-05-02T07:22:04.440Z,5.60
2019-05-02T07:24:39.288Z,5.42
2019-05-02T07:27:19.887Z,5.50
2019-05-02T07:29:57.784Z,5.17
2019-05-02T07:32:24.619Z,4.78
2019-05-02T07:34:57.116Z,4.92
2019-05-02T07:37:33.187Z,4.95
2019-05-02T07:40:12.014Z,4.87
2019-05-02T07:42:41.883Z,4.90
2019-05-02T07:45:09.281Z,7.50
2019-05-02T07:47:40.267Z,4.58
2019-05-02T07:50:05.418Z,5.55
2019-05-02T07:52:33.833Z,5.42
2019-05-02T07:55:02.623Z,5.03
2019-05-02T07:57:30.394Z,5.00
2019-05-02T08:00:00.453Z,4.75
2019-05-02T08:02:26.389Z,4.95
2019-05-02T08:04:52.996Z,5.00
2019-05-02T08:07:21.108Z,4.60
2019-05-02T08:09:47.778Z,4.70
2019-05-02T08:12:14.513Z,4.60
2019-05-02T08:14:41.055Z,4.45
2019-05-02T08:17:16.185Z,4.90
2019-05-02T08:19:37.565Z,4.40
2019-05-02T08:22:12.966Z,4.33
2019-05-02T08:24:33.017Z,4.00
2019-05-02T08:27:05.574Z,3.65
2019-05-02T08:29:32.909Z,3.35
2019-05-02T08:31:59.529Z,4.10
2019-05-02T08:34:32.703Z,3.15
2019-05-02T08:37:03.224Z,3.83
2019-05-02T08:39:33.198Z,3.10
2019-05-02T08:41:57.980Z,3.30
2019-05-02T08:44:24.718Z,3.20
2019-05-02T08:46:53.246Z,3.10
2019-05-02T08:49:20.095Z,2.92
2019-05-02T08:51:46.618Z,2.85
2019-05-02T08:54:13.165Z,3.10
2019-05-02T08:56:39.743Z,2.65
2019-05-02T08:59:06.207Z,3.75
2019-05-02T09:01:35.276Z,2.83
2019-05-02T09:04:01.004Z,2.90
2019-05-02T09:06:27.661Z,2.92
2019-05-02T09:08:54.126Z,10.08
2019-05-02T09:11:20.640Z,3.05
2019-05-02T09:13:47.123Z,2.62
2019-05-02T09:16:13.568Z,2.42
2019-05-02T09:18:50.019Z,2.40
2019-05-02T09:21:08.602Z,2.92
2019-05-02T09:23:37.015Z,3.25
2019-05-02T09:26:03.493Z,2.58
2019-05-02T09:28:31.973Z,3.67
2019-05-02T09:31:05.074Z,2.95
2019-05-02T09:33:26.576Z,2.90
2019-05-02T09:35:53.038Z,2.35
2019-05-02T09:38:19.539Z,4.30
2019-05-02T09:40:51.551Z,2.67
2019-05-02T09:43:14.235Z,3.42
2019-05-02T09:45:43.194Z,3.08
2019-05-02T09:48:09.006Z,3.08
2019-05-02T09:50:38.501Z,2.98
2019-05-02T09:53:05.117Z,3.22
2019-05-02T09:55:31.840Z,2.20
2019-05-02T09:57:58.509Z,3.25
2019-05-02T10:00:36.300Z,3.20
2019-05-02T10:03:03.433Z,2.52
2019-05-02T10:05:32.095Z,2.22
2019-05-02T10:08:02.983Z,2.80
2019-05-02T10:10:28.211Z,3.10
2019-05-02T10:12:54.675Z,2.80
2019-05-02T10:15:22.209Z,2.55
2019-05-02T10:17:49.128Z,2.40
2019-05-02T10:20:16.111Z,2.50
2019-05-02T10:22:43.820Z,3.90
2019-05-02T10:25:12.270Z,2.77
2019-05-02T10:27:43.868Z,2.17
2019-05-02T10:30:13.417Z,2.20
2019-05-02T10:32:36.584Z,1.75
2019-05-02T10:35:07.375Z,1.82
2019-05-02T10:37:38.377Z,2.30
2019-05-02T10:40:07.739Z,2.52
2019-05-02T10:42:34.792Z,1.95
2019-05-02T10:45:02.788Z,2.30
2019-05-02T10:47:32.296Z,2.22
2019-05-02T10:50:14.002Z,2.00
2019-05-02T10:52:42.493Z,2.20
2019-05-02T10:55:09.786Z,2.30
2019-05-02T10:57:36.266Z,2.83
2019-05-02T11:00:09.670Z,2.30
2019-05-02T11:02:41.927Z,1.90
2019-05-02T11:05:16.859Z,1.80
2019-05-02T11:07:42.009Z,1.82
2019-05-02T11:10:08.854Z,2.30
2019-05-02T11:12:44.411Z,2.12
2019-05-02T11:15:10.495Z,2.05
2019-05-02T11:17:39.431Z,2.10
2019-05-02T11:20:08.129Z,1.90
2019-05-02T11:22:34.693Z,2.05
2019-05-02T11:25:02.000Z,2.00
2019-05-02T11:27:28.686Z,2.12
2019-05-02T11:29:55.261Z,2.22
2019-05-02T11:32:22.175Z,2.70
2019-05-02T11:34:49.843Z,2.10
2019-05-02T11:37:16.307Z,2.08
2019-05-02T11:39:51.749Z,2.67
2019-05-02T11:42:17.765Z,1.70
2019-05-02T11:44:44.861Z,2.25
2019-05-02T11:47:12.630Z,1.82
2019-05-02T11:49:46.755Z,2.22
2019-05-02T11:52:13.471Z,2.20
2019-05-02T11:54:44.695Z,1.90
2019-05-02T11:57:08.313Z,1.92
2019-05-02T11:59:34.774Z,1.77
2019-05-02T12:02:03.143Z,1.92
2019-05-02T12:04:29.619Z,1.80
2019-05-02T12:07:01.075Z,1.90
2019-05-02T12:09:24.653Z,1.95
2019-05-02T12:11:56.551Z,1.57
2019-05-02T12:14:20.643Z,2.00
2019-05-02T12:16:47.073Z,1.90
2019-05-02T12:19:14.970Z,1.95
2019-05-02T12:21:45.269Z,2.10
2019-05-02T12:24:13.711Z,1.87
2019-05-02T12:26:41.943Z,1.67
2019-05-02T12:29:08.407Z,2.02
2019-05-02T12:31:35.052Z,1.60
2019-05-02T12:34:03.197Z,1.67
2019-05-02T12:36:29.775Z,1.72
2019-05-02T12:38:56.341Z,1.65
2019-05-02T12:41:25.161Z,1.82
2019-05-02T12:43:52.406Z,1.95
2019-05-02T12:46:19.150Z,2.10
2019-05-02T12:48:45.626Z,1.98
2019-05-02T12:51:12.709Z,1.92
2019-05-02T12:53:39.215Z,1.65
2019-05-02T12:56:06.725Z,1.32
2019-05-02T12:58:33.243Z,1.70
2019-05-02T13:00:59.663Z,1.72
2019-05-02T13:03:37.172Z,1.52
2019-05-02T13:06:04.101Z,1.90
2019-05-02T13:08:32.244Z,1.80
2019-05-02T15:08:47.862Z,1.32
2019-05-02T15:11:14.480Z,1.67
2019-05-02T15:13:41.752Z,1.65
2019-05-02T15:16:10.459Z,1.45
2019-05-02T15:18:38.670Z,1.32
2019-05-02T15:21:12.358Z,1.55
2019-05-02T15:23:33.710Z,1.20
2019-05-02T15:26:00.175Z,1.62
2019-05-02T15:28:30.300Z,1.32
2019-05-02T15:31:04.925Z,1.22
2019-05-02T15:33:34.501Z,1.20
2019-05-02T15:36:07.286Z,1.50
2019-05-02T15:38:32.382Z,1.10
2019-05-02T15:41:03.792Z,1.30
2019-05-02T15:43:27.312Z,1.30
2019-05-02T15:45:53.760Z,1.15
2019-05-02T15:48:26.097Z,1.40
2019-05-02T15:50:52.467Z,1.60
2019-05-02T15:53:19.938Z,1.70
2019-05-02T15:55:46.387Z,1.30
2019-05-02T15:58:23.065Z,1.15
2019-05-02T16:01:05.006Z,1.30
2019-05-02T16:03:45.763Z,1.20
2019-05-02T16:06:11.757Z,1.30
2019-05-02T16:08:47.791Z,1.25
2019-05-02T16:11:17.034Z,1.20
2019-05-02T16:13:47.079Z,1.85
2019-05-02T16:16:13.147Z,1.10
2019-05-02T16:18:41.069Z,1.77
2019-05-02T16:21:28.452Z,1.55
2019-05-02T16:24:12.110Z,1.60
2019-05-02T16:26:44.913Z,1.47
2019-05-02T16:29:05.832Z,6.55
2019-05-02T16:31:34.402Z,1.37
2019-05-02T16:34:02.331Z,1.30
2019-05-02T16:39:18.533Z,1.25
2019-05-02T16:41:50.566Z,1.25
2019-05-02T16:44:32.233Z,1.40
2019-05-02T16:47:02.834Z,1.60
2019-05-02T16:49:32.194Z,1.30
2019-05-02T16:52:05.012Z,1.60
2019-05-02T16:54:27.461Z,1.40
2019-05-02T16:56:54.168Z,1.35
2019-05-02T16:59:21.436Z,1.65
2019-05-02T17:01:48.939Z,1.50
2019-05-02T17:04:17.373Z,1.52
2019-05-02T17:06:45.848Z,2.00
2019-05-02T17:09:38.805Z,1.12
2019-05-02T17:12:11.889Z,1.80
2019-05-02T17:14:43.536Z,1.80
2019-05-02T17:17:12.172Z,1.77
2019-05-02T17:19:38.376Z,1.57
2019-05-02T17:22:04.833Z,2.30
2019-05-02T17:24:32.261Z,1.75
2019-05-02T17:26:58.934Z,1.42
2019-05-02T17:29:25.519Z,1.70
2019-05-02T17:31:55.411Z,1.42
2019-05-02T17:34:23.071Z,1.70
2019-05-02T17:36:48.827Z,1.52
2019-05-02T17:39:15.286Z,1.75
2019-05-02T17:41:45.610Z,1.42
2019-05-02T17:44:12.915Z,3.05
2019-05-02T17:46:39.286Z,2.10
2019-05-02T17:49:06.932Z,2.58
2019-05-02T17:51:51.957Z,1.60
2019-05-02T17:54:22.830Z,1.70
2019-05-02T17:56:46.641Z,1.85
2019-05-02T17:59:13.088Z,1.80
2019-05-02T18:01:41.781Z,2.00
2019-05-02T18:04:12.631Z,1.90
2019-05-02T18:06:36.758Z,1.90
2019-05-02T18:09:05.341Z,1.85
2019-05-02T18:11:36.518Z,1.75
2019-05-02T18:14:02.371Z,1.80
2019-05-02T18:16:28.534Z,2.30
2019-05-02T18:18:55.026Z,1.82
2019-05-02T18:21:25.499Z,1.90
2019-05-02T18:23:51.906Z,1.70
2019-05-02T18:26:18.435Z,2.08
2019-05-02T18:28:49.277Z,1.92
2019-05-02T18:31:14.556Z,1.90
2019-05-02T18:33:42.497Z,1.95
2019-05-02T18:36:10.052Z,1.57
2019-05-02T18:38:37.107Z,2.15
2019-05-02T18:41:05.820Z,2.67
2019-05-02T18:43:36.163Z,4.78
2019-05-02T18:46:05.992Z,7.05
2019-05-02T18:48:28.850Z,3.90
2019-05-02T18:50:56.435Z,2.52
2019-05-02T18:53:26.975Z,2.33
2019-05-02T18:56:01.645Z,2.17
2019-05-02T18:58:28.871Z,1.87
2019-05-02T19:00:56.322Z,1.90
2019-05-02T19:03:25.670Z,1.80
2019-05-02T19:05:57.280Z,2.33
2019-05-02T19:08:31.206Z,1.80
2019-05-02T19:11:08.504Z,2.10
2019-05-02T19:13:25.524Z,1.98
2019-05-02T19:15:56.099Z,1.90
2019-05-02T19:18:23.261Z,2.10
2019-05-02T19:21:03.237Z,2.30
2019-05-02T19:23:34.967Z,1.92
2019-05-02T19:26:10.027Z,2.40
2019-05-02T19:28:53.359Z,2.55
2019-05-02T19:31:22.454Z,2.52
2019-05-02T19:33:49.437Z,2.67
2019-05-02T19:36:21.736Z,2.45
2019-05-02T19:38:44.825Z,2.90
2019-05-02T19:41:11.740Z,2.52
2019-05-02T19:43:40.325Z,2.50
2019-05-02T19:46:06.993Z,2.15
2019-05-02T19:48:36.884Z,3.62
2019-05-02T19:51:02.420Z,2.92
2019-05-02T19:53:32.068Z,2.67
2019-05-02T19:56:01.490Z,8.48
2019-05-02T19:58:27.041Z,4.90
2019-05-02T20:00:53.696Z,2.83
2019-05-02T20:03:23.299Z,3.42
2019-05-02T20:05:49.274Z,4.08
2019-05-02T20:08:21.480Z,2.72
2019-05-02T20:10:44.214Z,4.53
2019-05-02T20:13:12.019Z,4.50
2019-05-02T20:15:42.188Z,4.78
2019-05-02T20:18:08.759Z,3.83
2019-05-02T20:20:57.339Z,3.37
2019-05-02T20:23:31.246Z,4.03
2019-05-02T20:25:52.443Z,3.40
2019-05-02T20:28:19.129Z,2.77
2019-05-02T20:30:45.771Z,3.00
2019-05-02T20:33:12.856Z,3.10
2019-05-02T20:35:42.145Z,2.70
2019-05-02T20:38:11.147Z,3.05
2019-05-02T20:40:38.945Z,3.77
2019-05-02T20:43:05.837Z,3.10
2019-05-02T20:45:46.082Z,3.08
2019-05-02T20:48:53.373Z,2.87
2019-05-02T20:51:26.741Z,21.52
2019-05-02T20:54:01.950Z,6.95
2019-05-02T20:56:46.306Z,3.15
2019-05-02T20:59:25.429Z,3.50
2019-05-02T21:05:13.166Z,2.87
2019-05-02T21:08:06.633Z,2.55
2019-05-02T21:11:19.990Z,2.67
2019-05-02T21:13:41.717Z,2.85
2019-05-02T21:16:21.707Z,2.92
2019-05-02T21:18:56.988Z,2.90
2019-05-02T21:21:32.610Z,2.70
2019-05-02T21:24:09.657Z,2.95
2019-05-02T21:26:42.260Z,3.30
2019-05-02T21:29:19.656Z,3.52
2019-05-02T21:31:46.147Z,3.10
2019-05-02T21:34:12.792Z,3.02
2019-05-02T21:36:39.331Z,3.08
2019-05-02T21:39:11.884Z,3.30
2019-05-02T21:41:38.657Z,3.00
2019-05-02T21:44:05.302Z,2.85
2019-05-02T21:46:31.907Z,3.00
2019-05-02T21:48:58.594Z,3.00
2019-05-02T21:51:26.951Z,3.08
2019-05-02T21:54:12.214Z,2.92
2019-05-02T21:56:40.599Z,2.90
2019-05-02T21:59:08.651Z,2.62
2019-05-02T22:01:42.239Z,2.40
2019-05-02T22:04:09.213Z,2.98
2019-05-02T22:06:35.677Z,2.55
2019-05-02T22:09:05.845Z,13.95
2019-05-02T22:11:34.580Z,4.28
2019-05-02T22:14:02.378Z,3.70
2019-05-02T22:16:29.161Z,3.87
2019-05-02T22:19:10.353Z,3.92
2019-05-02T22:21:38.034Z,4.50
2019-05-02T22:24:11.231Z,4.72
2019-05-02T22:26:33.050Z,4.00
2019-05-02T22:29:01.768Z,4.00
2019-05-02T22:31:27.871Z,3.87
2019-05-02T22:33:54.343Z,3.40
2019-05-02T22:36:36.738Z,3.65
2019-05-02T22:39:08.372Z,3.80
2019-05-02T22:41:35.546Z,2.98
2019-05-02T22:44:02.184Z,2.65
2019-05-02T22:46:43.186Z,2.62
2019-05-02T22:49:11.911Z,2.37
2019-05-02T22:51:42.726Z,2.72
2019-05-02T22:54:23.288Z,2.70
2019-05-02T22:56:37.892Z,2.80
2019-05-02T22:59:04.540Z,2.67
2019-05-02T23:01:32.399Z,2.70
2019-05-02T23:04:01.862Z,2.80
2019-05-02T23:06:30.487Z,3.20
2019-05-02T23:08:58.201Z,3.00
2019-05-02T23:11:24.645Z,2.80
2019-05-02T23:13:51.753Z,2.80
2019-05-02T23:16:18.386Z,2.90
2019-05-02T23:18:44.808Z,3.02
2019-05-02T23:21:12.675Z,3.10
2019-05-02T23:23:39.538Z,2.87
2019-05-02T23:26:26.092Z,3.00
2019-05-02T23:28:54.664Z,2.75
2019-05-02T23:31:22.553Z,3.10
2019-05-02T23:33:57.824Z,2.83
2019-05-02T23:36:32.511Z,3.00
2019-05-02T23:38:59.217Z,3.10
2019-05-02T23:41:26.641Z,2.83
2019-05-02T23:43:53.193Z,3.00
2019-05-02T23:46:22.240Z,2.85
2019-05-02T23:48:48.749Z,2.90
2019-05-02T23:51:15.303Z,2.85
2019-05-02T23:53:42.260Z,3.12
2019-05-02T23:56:10.006Z,2.83
2019-05-02T23:58:36.564Z,3.10
